sensor_id;sensor_type;location;lat;lon;timestamp;P1;durP1;ratioP1;P2;durP2;ratioP2
77164;SDS011;66140;50.280;18.660;2023-02-25T05:00:51;14.18;;;7.63;;
77164;SDS011;66140;50.280;18.660;2023-02-25T05:03:17;10.32;;;5.50;;
77164;SDS011;66140;50.280;18.660;2023-02-25T05:05:42;8.60;;;5.05;;
77164;SDS011;66140;50.280;18.660;2023-02-25T05:08:08;12.85;;;5.88;;
77164;SDS011;66140;50.280;18.660;2023-02-25T05:10:33;14.00;;;6.53;;
77164;SDS011;66140;50.280;18.660;2023-02-25T05:12:59;12.23;;;6.43;;
77164;SDS011;66140;50.280;18.660;2023-02-25T05:15:24;15.70;;;5.93;;
77164;SDS011;66140;50.280;18.660;2023-02-25T05:17:50;12.95;;;6.32;;
77164;SDS011;66140;50.280;18.660;2023-02-25T05:20:15;10.38;;;5.80;;
77164;SDS011;66140;50.280;18.660;2023-02-25T05:22:41;11.68;;;5.95;;
77164;SDS011;66140;50.280;18.660;2023-02-25T05:25:06;13.45;;;6.00;;
77164;SDS011;66140;50.280;18.660;2023-02-25T05:27:34;17.88;;;9.57;;
77164;SDS011;66140;50.280;18.660;2023-02-25T05:29:59;19.05;;;8.38;;
77164;SDS011;66140;50.280;18.660;2023-02-25T05:32:25;21.55;;;9.15;;
77164;SDS011;66140;50.280;18.660;2023-02-25T05:34:51;15.85;;;9.18;;
77164;SDS011;66140;50.280;18.660;2023-02-25T05:37:16;22.40;;;10.10;;
77164;SDS011;66140;50.280;18.660;2023-02-25T05:39:42;17.65;;;8.45;;
77164;SDS011;66140;50.280;18.660;2023-02-25T05:42:07;19.80;;;9.02;;
77164;SDS011;66140;50.280;18.660;2023-02-25T05:44:33;18.13;;;7.78;;
77164;SDS011;66140;50.280;18.660;2023-02-25T05:46:58;22.67;;;11.20;;
77164;SDS011;66140;50.280;18.660;2023-02-25T05:49:24;24.20;;;11.65;;
77164;SDS011;66140;50.280;18.660;2023-02-25T05:51:49;20.60;;;11.68;;
77164;SDS011;66140;50.280;18.660;2023-02-25T05:54:15;23.83;;;11.00;;
77164;SDS011;66140;50.280;18.660;2023-02-25T05:56:41;30.60;;;17.60;;
77164;SDS011;66140;50.280;18.660;2023-02-25T05:59:09;29.58;;;16.33;;
77164;SDS011;66140;50.280;18.660;2023-02-25T06:01:35;23.40;;;13.18;;
77164;SDS011;66140;50.280;18.660;2023-02-25T06:04:01;19.58;;;8.60;;
77164;SDS011;66140;50.280;18.660;2023-02-25T06:06:35;15.63;;;8.15;;
77164;SDS011;66140;50.280;18.660;2023-02-25T06:09:43;16.60;;;8.52;;
77164;SDS011;66140;50.280;18.660;2023-02-25T06:12:14;16.23;;;8.88;;
77164;SDS011;66140;50.280;18.660;2023-02-25T06:14:39;15.85;;;8.50;;
77164;SDS011;66140;50.280;18.660;2023-02-25T06:17:05;17.17;;;8.55;;
77164;SDS011;66140;50.280;18.660;2023-02-25T06:19:30;12.65;;;7.25;;
77164;SDS011;66140;50.280;18.660;2023-02-25T06:21:56;17.27;;;8.70;;
77164;SDS011;66140;50.280;18.660;2023-02-25T06:24:21;15.05;;;7.78;;
77164;SDS011;66140;50.280;18.660;2023-02-25T06:26:47;19.02;;;7.80;;
77164;SDS011;66140;50.280;18.660;2023-02-25T06:29:13;16.40;;;7.57;;
77164;SDS011;66140;50.280;18.660;2023-02-25T06:32:06;12.38;;;7.05;;
77164;SDS011;66140;50.280;18.660;2023-02-25T06:34:40;13.70;;;7.25;;
77164;SDS011;66140;50.280;18.660;2023-02-25T06:38:21;14.05;;;6.82;;
77164;SDS011;66140;50.280;18.660;2023-02-25T06:41:22;13.70;;;6.68;;
77164;SDS011;66140;50.280;18.660;2023-02-25T06:44:09;16.50;;;6.13;;
77164;SDS011;66140;50.280;18.660;2023-02-25T06:46:36;13.82;;;6.55;;
77164;SDS011;66140;50.280;18.660;2023-02-25T06:49:04;13.50;;;6.00;;
77164;SDS011;66140;50.280;18.660;2023-02-25T06:51:30;13.27;;;6.45;;
77164;SDS011;66140;50.280;18.660;2023-02-25T06:53:55;9.93;;;5.82;;
77164;SDS011;66140;50.280;18.660;2023-02-25T06:56:20;14.05;;;6.07;;
77164;SDS011;66140;50.280;18.660;2023-02-25T06:58:46;13.27;;;6.10;;
77164;SDS011;66140;50.280;18.660;2023-02-25T07:01:13;11.48;;;4.63;;
77164;SDS011;66140;50.280;18.660;2023-02-25T07:03:40;11.00;;;6.25;;
77164;SDS011;66140;50.280;18.660;2023-02-25T07:06:07;12.57;;;5.35;;
77164;SDS011;66140;50.280;18.660;2023-02-25T07:08:33;9.80;;;5.18;;
77164;SDS011;66140;50.280;18.660;2023-02-25T07:13:58;4.00;;;2.47;;
77164;SDS011;66140;50.280;18.660;2023-02-25T07:16:24;5.03;;;2.35;;
77164;SDS011;66140;50.280;18.660;2023-02-25T07:18:51;8.05;;;3.65;;
77164;SDS011;66140;50.280;18.660;2023-02-25T07:21:16;5.80;;;2.90;;
77164;SDS011;66140;50.280;18.660;2023-02-25T07:23:42;6.03;;;2.83;;
77164;SDS011;66140;50.280;18.660;2023-02-25T07:26:09;6.53;;;3.30;;
77164;SDS011;66140;50.280;18.660;2023-02-25T07:28:36;2.20;;;1.42;;
77164;SDS011;66140;50.280;18.660;2023-02-25T07:31:09;2.15;;;1.38;;
77164;SDS011;66140;50.280;18.660;2023-02-25T07:33:39;5.68;;;2.08;;
77164;SDS011;66140;50.280;18.660;2023-02-25T07:36:06;4.75;;;2.45;;
77164;SDS011;66140;50.280;18.660;2023-02-25T07:38:31;4.78;;;2.97;;
77164;SDS011;66140;50.280;18.660;2023-02-25T07:41:02;5.97;;;3.33;;
77164;SDS011;66140;50.280;18.660;2023-02-25T07:43:28;6.88;;;3.33;;
77164;SDS011;66140;50.280;18.660;2023-02-25T07:45:55;6.43;;;3.95;;
77164;SDS011;66140;50.280;18.660;2023-02-25T07:48:21;8.50;;;3.97;;
77164;SDS011;66140;50.280;18.660;2023-02-25T07:50:47;7.05;;;4.07;;
77164;SDS011;66140;50.280;18.660;2023-02-25T07:53:12;6.37;;;4.00;;
77164;SDS011;66140;50.280;18.660;2023-02-25T07:55:41;8.68;;;4.65;;
77164;SDS011;66140;50.280;18.660;2023-02-25T07:58:08;11.10;;;5.07;;
77164;SDS011;66140;50.280;18.660;2023-02-25T08:00:36;11.65;;;5.55;;
77164;SDS011;66140;50.280;18.660;2023-02-25T08:03:02;8.43;;;5.10;;
77164;SDS011;66140;50.280;18.660;2023-02-25T08:05:29;9.35;;;4.47;;
77164;SDS011;66140;50.280;18.660;2023-02-25T08:07:58;7.60;;;3.95;;
77164;SDS011;66140;50.280;18.660;2023-02-25T08:10:23;10.73;;;5.50;;
77164;SDS011;66140;50.280;18.660;2023-02-25T08:12:49;6.93;;;4.60;;
77164;SDS011;66140;50.280;18.660;2023-02-25T08:15:14;7.70;;;4.43;;
77164;SDS011;66140;50.280;18.660;2023-02-25T08:17:39;5.18;;;1.77;;
77164;SDS011;66140;50.280;18.660;2023-02-25T08:20:05;5.13;;;2.80;;
77164;SDS011;66140;50.280;18.660;2023-02-25T08:22:32;5.03;;;2.70;;
77164;SDS011;66140;50.280;18.660;2023-02-25T08:24:58;3.63;;;1.77;;
77164;SDS011;66140;50.280;18.660;2023-02-25T08:27:24;6.80;;;2.10;;
77164;SDS011;66140;50.280;18.660;2023-02-25T08:29:49;4.88;;;2.30;;
77164;SDS011;66140;50.280;18.660;2023-02-25T08:32:14;4.22;;;2.38;;
77164;SDS011;66140;50.280;18.660;2023-02-25T08:34:41;4.85;;;3.05;;
77164;SDS011;66140;50.280;18.660;2023-02-25T08:37:08;4.78;;;2.58;;
77164;SDS011;66140;50.280;18.660;2023-02-25T08:39:35;3.90;;;2.40;;
77164;SDS011;66140;50.280;18.660;2023-02-25T08:42:01;5.22;;;2.72;;
77164;SDS011;66140;50.280;18.660;2023-02-25T08:44:26;3.50;;;1.90;;
77164;SDS011;66140;50.280;18.660;2023-02-25T08:46:52;3.08;;;1.83;;
77164;SDS011;66140;50.280;18.660;2023-02-25T08:49:17;3.28;;;1.75;;
77164;SDS011;66140;50.280;18.660;2023-02-25T08:51:42;6.38;;;2.10;;
77164;SDS011;66140;50.280;18.660;2023-02-25T08:54:10;2.25;;;1.65;;
77164;SDS011;66140;50.280;18.660;2023-02-25T08:56:37;3.78;;;1.92;;
77164;SDS011;66140;50.280;18.660;2023-02-25T08:59:04;3.38;;;1.50;;
77164;SDS011;66140;50.280;18.660;2023-02-25T09:01:30;3.50;;;2.00;;
77164;SDS011;66140;50.280;18.660;2023-02-25T09:04:09;2.92;;;1.90;;
77164;SDS011;66140;50.280;18.660;2023-02-25T09:06:35;4.03;;;1.88;;
77164;SDS011;66140;50.280;18.660;2023-02-25T09:09:01;4.18;;;2.08;;
77164;SDS011;66140;50.280;18.660;2023-02-25T09:11:26;2.97;;;1.90;;
77164;SDS011;66140;50.280;18.660;2023-02-25T09:13:52;4.45;;;2.47;;
77164;SDS011;66140;50.280;18.660;2023-02-25T09:16:18;4.60;;;2.75;;
77164;SDS011;66140;50.280;18.660;2023-02-25T09:18:45;5.35;;;2.22;;
77164;SDS011;66140;50.280;18.660;2023-02-25T09:21:11;5.18;;;2.15;;
77164;SDS011;66140;50.280;18.660;2023-02-25T09:23:37;3.03;;;1.80;;
77164;SDS011;66140;50.280;18.660;2023-02-25T09:26:03;3.33;;;1.63;;
77164;SDS011;66140;50.280;18.660;2023-02-25T09:28:29;1.45;;;1.05;;
77164;SDS011;66140;50.280;18.660;2023-02-25T09:30:55;2.85;;;1.63;;
77164;SDS011;66140;50.280;18.660;2023-02-25T09:33:21;3.42;;;1.85;;
77164;SDS011;66140;50.280;18.660;2023-02-25T09:35:47;2.90;;;1.55;;
77164;SDS011;66140;50.280;18.660;2023-02-25T09:38:13;4.17;;;1.40;;
77164;SDS011;66140;50.280;18.660;2023-02-25T09:40:39;2.63;;;1.05;;
77164;SDS011;66140;50.280;18.660;2023-02-25T09:45:47;3.97;;;1.85;;
77164;SDS011;66140;50.280;18.660;2023-02-25T09:48:18;4.45;;;1.83;;
77164;SDS011;66140;50.280;18.660;2023-02-25T09:50:51;2.17;;;1.92;;
77164;SDS011;66140;50.280;18.660;2023-02-25T09:53:23;2.58;;;1.40;;
77164;SDS011;66140;50.280;18.660;2023-02-25T09:55:56;4.78;;;1.92;;
77164;SDS011;66140;50.280;18.660;2023-02-25T09:58:24;2.05;;;1.40;;
77164;SDS011;66140;50.280;18.660;2023-02-25T10:01:18;6.20;;;1.80;;
77164;SDS011;66140;50.280;18.660;2023-02-25T10:03:55;2.58;;;1.63;;
77164;SDS011;66140;50.280;18.660;2023-02-25T10:06:27;4.50;;;1.48;;
77164;SDS011;66140;50.280;18.660;2023-02-25T10:11:50;2.40;;;1.52;;
77164;SDS011;66140;50.280;18.660;2023-02-25T10:28:28;1.20;;;0.80;;
77164;SDS011;66140;50.280;18.660;2023-02-25T10:33:38;1.52;;;1.00;;
77164;SDS011;66140;50.280;18.660;2023-02-25T10:36:15;3.70;;;1.23;;
77164;SDS011;66140;50.280;18.660;2023-02-25T10:39:13;1.58;;;0.80;;
77164;SDS011;66140;50.280;18.660;2023-02-25T10:41:39;2.13;;;1.25;;
77164;SDS011;66140;50.280;18.660;2023-02-25T10:44:04;2.65;;;1.23;;
77164;SDS011;66140;50.280;18.660;2023-02-25T10:49:26;3.50;;;1.75;;
77164;SDS011;66140;50.280;18.660;2023-02-25T10:54:26;1.50;;;0.95;;
77164;SDS011;66140;50.280;18.660;2023-02-25T10:56:52;1.83;;;0.93;;
77164;SDS011;66140;50.280;18.660;2023-02-25T10:59:34;2.17;;;0.75;;
77164;SDS011;66140;50.280;18.660;2023-02-25T11:02:02;3.17;;;0.90;;
77164;SDS011;66140;50.280;18.660;2023-02-25T11:04:44;3.08;;;1.02;;
77164;SDS011;66140;50.280;18.660;2023-02-25T11:12:41;1.05;;;0.90;;
77164;SDS011;66140;50.280;18.660;2023-02-25T11:17:57;2.97;;;1.38;;
77164;SDS011;66140;50.280;18.660;2023-02-25T11:20:28;2.55;;;0.88;;
77164;SDS011;66140;50.280;18.660;2023-02-25T11:22:58;2.95;;;0.90;;
77164;SDS011;66140;50.280;18.660;2023-02-25T11:33:37;0.95;;;0.80;;
77164;SDS011;66140;50.280;18.660;2023-02-25T11:36:10;1.33;;;0.65;;
77164;SDS011;66140;50.280;18.660;2023-02-25T11:38:37;2.28;;;0.47;;
77164;SDS011;66140;50.280;18.660;2023-02-25T11:41:22;1.15;;;0.50;;
77164;SDS011;66140;50.280;18.660;2023-02-25T11:43:47;1.35;;;0.80;;
77164;SDS011;66140;50.280;18.660;2023-02-25T11:46:18;1.50;;;0.73;;
77164;SDS011;66140;50.280;18.660;2023-02-25T11:56:50;1.65;;;0.80;;
77164;SDS011;66140;50.280;18.660;2023-02-25T11:59:26;2.80;;;1.50;;
77164;SDS011;66140;50.280;18.660;2023-02-25T12:27:24;2.22;;;1.10;;
77164;SDS011;66140;50.280;18.660;2023-02-25T13:03:47;1.67;;;0.90;;
77164;SDS011;66140;50.280;18.660;2023-02-25T13:15:30;2.15;;;1.25;;
77164;SDS011;66140;50.280;18.660;2023-02-25T13:24:05;2.67;;;1.30;;
77164;SDS011;66140;50.280;18.660;2023-02-25T13:35:05;1.90;;;1.30;;
77164;SDS011;66140;50.280;18.660;2023-02-25T13:40:31;2.35;;;1.20;;
77164;SDS011;66140;50.280;18.660;2023-02-25T13:46:04;3.40;;;1.75;;
77164;SDS011;66140;50.280;18.660;2023-02-25T13:51:47;1.95;;;1.10;;
77164;SDS011;66140;50.280;18.660;2023-02-25T13:54:51;1.80;;;1.08;;
77164;SDS011;66140;50.280;18.660;2023-02-25T13:57:34;1.63;;;0.95;;
77164;SDS011;66140;50.280;18.660;2023-02-25T14:15:07;2.78;;;1.65;;
77164;SDS011;66140;50.280;18.660;2023-02-25T14:28:39;2.33;;;1.52;;
77164;SDS011;66140;50.280;18.660;2023-02-25T14:31:19;2.97;;;1.85;;
77164;SDS011;66140;50.280;18.660;2023-02-25T14:34:11;4.10;;;2.38;;
77164;SDS011;66140;50.280;18.660;2023-02-25T14:45:35;3.53;;;2.13;;
77164;SDS011;66140;50.280;18.660;2023-02-25T14:48:19;4.40;;;1.80;;
77164;SDS011;66140;50.280;18.660;2023-02-25T14:51:10;2.80;;;2.03;;
77164;SDS011;66140;50.280;18.660;2023-02-25T14:53:59;3.78;;;2.25;;
77164;SDS011;66140;50.280;18.660;2023-02-25T14:56:54;6.25;;;2.90;;
77164;SDS011;66140;50.280;18.660;2023-02-25T14:59:48;2.78;;;2.00;;
77164;SDS011;66140;50.280;18.660;2023-02-25T15:11:06;4.95;;;2.30;;
77164;SDS011;66140;50.280;18.660;2023-02-25T15:16:29;4.72;;;1.88;;
77164;SDS011;66140;50.280;18.660;2023-02-25T15:22:17;2.03;;;1.70;;
77164;SDS011;66140;50.280;18.660;2023-02-25T15:24:45;2.30;;;1.38;;
77164;SDS011;66140;50.280;18.660;2023-02-25T15:29:57;1.38;;;0.75;;
77164;SDS011;66140;50.280;18.660;2023-02-25T15:32:25;3.50;;;1.52;;
77164;SDS011;66140;50.280;18.660;2023-02-25T15:35:01;3.17;;;1.70;;
77164;SDS011;66140;50.280;18.660;2023-02-25T15:37:30;3.38;;;1.40;;
77164;SDS011;66140;50.280;18.660;2023-02-25T15:53:10;2.63;;;1.60;;
77164;SDS011;66140;50.280;18.660;2023-02-25T16:00:53;4.57;;;2.37;;
77164;SDS011;66140;50.280;18.660;2023-02-25T16:06:09;4.40;;;2.00;;
77164;SDS011;66140;50.280;18.660;2023-02-25T16:13:59;2.08;;;1.65;;
77164;SDS011;66140;50.280;18.660;2023-02-25T16:16:30;3.97;;;2.30;;
77164;SDS011;66140;50.280;18.660;2023-02-25T16:18:58;5.95;;;2.90;;
77164;SDS011;66140;50.280;18.660;2023-02-25T16:23:54;5.95;;;3.28;;
77164;SDS011;66140;50.280;18.660;2023-02-25T16:34:22;9.82;;;4.53;;
77164;SDS011;66140;50.280;18.660;2023-02-25T16:36:58;8.88;;;3.85;;
77164;SDS011;66140;50.280;18.660;2023-02-25T16:39:36;6.15;;;3.67;;
77164;SDS011;66140;50.280;18.660;2023-02-25T16:42:03;5.13;;;3.50;;
77164;SDS011;66140;50.280;18.660;2023-02-25T16:44:35;11.07;;;4.80;;
77164;SDS011;66140;50.280;18.660;2023-02-25T16:47:03;6.93;;;3.92;;
77164;SDS011;66140;50.280;18.660;2023-02-25T16:49:43;5.95;;;4.00;;
77164;SDS011;66140;50.280;18.660;2023-02-25T16:52:14;11.80;;;5.05;;
77164;SDS011;66140;50.280;18.660;2023-02-25T16:54:44;12.05;;;3.50;;
77164;SDS011;66140;50.280;18.660;2023-02-25T16:57:18;5.25;;;2.97;;
77164;SDS011;66140;50.280;18.660;2023-02-25T16:59:45;7.28;;;3.08;;
77164;SDS011;66140;50.280;18.660;2023-02-25T17:04:40;5.00;;;3.20;;
77164;SDS011;66140;50.280;18.660;2023-02-25T17:07:17;7.32;;;3.65;;
77164;SDS011;66140;50.280;18.660;2023-02-25T17:09:58;7.57;;;3.42;;
77164;SDS011;66140;50.280;18.660;2023-02-25T17:15:15;6.63;;;3.60;;
77164;SDS011;66140;50.280;18.660;2023-02-25T17:17:49;6.22;;;2.72;;
77164;SDS011;66140;50.280;18.660;2023-02-25T17:20:24;8.10;;;3.35;;
77164;SDS011;66140;50.280;18.660;2023-02-25T17:22:53;5.95;;;3.50;;
77164;SDS011;66140;50.280;18.660;2023-02-25T17:25:21;4.28;;;2.65;;
77164;SDS011;66140;50.280;18.660;2023-02-25T17:27:54;5.30;;;2.58;;
77164;SDS011;66140;50.280;18.660;2023-02-25T17:30:35;2.13;;;0.98;;
77164;SDS011;66140;50.280;18.660;2023-02-25T17:33:04;3.42;;;2.72;;
77164;SDS011;66140;50.280;18.660;2023-02-25T17:35:33;4.15;;;2.75;;
77164;SDS011;66140;50.280;18.660;2023-02-25T17:38:00;7.95;;;2.95;;
77164;SDS011;66140;50.280;18.660;2023-02-25T17:40:27;6.03;;;2.90;;
77164;SDS011;66140;50.280;18.660;2023-02-25T17:45:59;5.00;;;2.70;;
77164;SDS011;66140;50.280;18.660;2023-02-25T17:48:28;5.50;;;2.50;;
77164;SDS011;66140;50.280;18.660;2023-02-25T17:51:00;8.27;;;4.43;;
77164;SDS011;66140;50.280;18.660;2023-02-25T17:56:13;3.40;;;2.33;;
77164;SDS011;66140;50.280;18.660;2023-02-25T17:58:40;6.30;;;2.72;;
77164;SDS011;66140;50.280;18.660;2023-02-25T18:01:06;4.35;;;2.10;;
77164;SDS011;66140;50.280;18.660;2023-02-25T18:03:45;2.53;;;1.55;;
77164;SDS011;66140;50.280;18.660;2023-02-25T18:06:32;5.85;;;2.60;;
77164;SDS011;66140;50.280;18.660;2023-02-25T18:09:03;5.50;;;2.53;;
77164;SDS011;66140;50.280;18.660;2023-02-25T18:16:53;4.07;;;2.13;;
77164;SDS011;66140;50.280;18.660;2023-02-25T18:22:01;4.03;;;2.85;;
77164;SDS011;66140;50.280;18.660;2023-02-25T18:24:33;6.68;;;3.33;;
77164;SDS011;66140;50.280;18.660;2023-02-25T18:27:18;3.55;;;2.45;;
77164;SDS011;66140;50.280;18.660;2023-02-25T18:29:51;4.25;;;2.40;;
77164;SDS011;66140;50.280;18.660;2023-02-25T18:32:20;4.40;;;2.83;;
77164;SDS011;66140;50.280;18.660;2023-02-25T18:34:48;3.63;;;2.47;;
77164;SDS011;66140;50.280;18.660;2023-02-25T18:37:15;3.47;;;2.22;;
77164;SDS011;66140;50.280;18.660;2023-02-25T18:39:43;3.00;;;1.48;;
77164;SDS011;66140;50.280;18.660;2023-02-25T18:42:14;4.45;;;2.45;;
77164;SDS011;66140;50.280;18.660;2023-02-25T18:44:41;3.80;;;2.28;;
77164;SDS011;66140;50.280;18.660;2023-02-25T18:47:06;3.95;;;2.47;;
77164;SDS011;66140;50.280;18.660;2023-02-25T18:49:32;4.67;;;1.90;;
77164;SDS011;66140;50.280;18.660;2023-02-25T18:51:57;2.10;;;1.60;;
77164;SDS011;66140;50.280;18.660;2023-02-25T18:54:22;4.97;;;2.72;;
77164;SDS011;66140;50.280;18.660;2023-02-25T18:56:48;4.80;;;2.60;;
77164;SDS011;66140;50.280;18.660;2023-02-25T18:59:13;5.63;;;3.33;;
77164;SDS011;66140;50.280;18.660;2023-02-25T19:01:39;6.23;;;3.20;;
77164;SDS011;66140;50.280;18.660;2023-02-25T19:04:05;4.88;;;2.65;;
77164;SDS011;66140;50.280;18.660;2023-02-25T19:06:30;4.15;;;2.75;;
77164;SDS011;66140;50.280;18.660;2023-02-25T19:08:57;9.93;;;4.30;;
77164;SDS011;66140;50.280;18.660;2023-02-25T19:11:24;4.50;;;2.63;;
77164;SDS011;66140;50.280;18.660;2023-02-25T19:14:00;4.18;;;2.85;;
77164;SDS011;66140;50.280;18.660;2023-02-25T19:16:26;6.53;;;3.25;;
77164;SDS011;66140;50.280;18.660;2023-02-25T19:18:52;5.32;;;3.33;;
77164;SDS011;66140;50.280;18.660;2023-02-25T19:21:18;5.97;;;2.87;;
77164;SDS011;66140;50.280;18.660;2023-02-25T19:23:44;4.38;;;2.95;;
77164;SDS011;66140;50.280;18.660;2023-02-25T19:26:10;6.20;;;3.35;;
77164;SDS011;66140;50.280;18.660;2023-02-25T19:28:36;7.70;;;3.45;;
77164;SDS011;66140;50.280;18.660;2023-02-25T19:31:05;4.97;;;3.33;;
77164;SDS011;66140;50.280;18.660;2023-02-25T19:33:31;4.90;;;2.90;;
77164;SDS011;66140;50.280;18.660;2023-02-25T19:35:57;6.72;;;3.38;;
77164;SDS011;66140;50.280;18.660;2023-02-25T19:38:22;6.50;;;3.80;;
77164;SDS011;66140;50.280;18.660;2023-02-25T19:40:48;6.20;;;3.60;;
77164;SDS011;66140;50.280;18.660;2023-02-25T19:43:14;7.70;;;3.67;;
77164;SDS011;66140;50.280;18.660;2023-02-25T19:45:41;6.05;;;2.92;;
77164;SDS011;66140;50.280;18.660;2023-02-25T19:48:07;7.68;;;4.65;;
77164;SDS011;66140;50.280;18.660;2023-02-25T19:50:33;7.03;;;4.57;;
77164;SDS011;66140;50.280;18.660;2023-02-25T19:52:59;11.65;;;5.43;;
77164;SDS011;66140;50.280;18.660;2023-02-25T19:55:27;10.05;;;4.95;;
77164;SDS011;66140;50.280;18.660;2023-02-25T19:57:52;8.02;;;4.88;;
77164;SDS011;66140;50.280;18.660;2023-02-25T20:00:19;5.75;;;3.28;;
77164;SDS011;66140;50.280;18.660;2023-02-25T20:02:46;11.27;;;4.90;;
77164;SDS011;66140;50.280;18.660;2023-02-25T20:05:12;6.07;;;3.28;;
77164;SDS011;66140;50.280;18.660;2023-02-25T20:07:38;6.72;;;3.45;;
77164;SDS011;66140;50.280;18.660;2023-02-25T20:10:05;7.03;;;4.28;;
77164;SDS011;66140;50.280;18.660;2023-02-25T20:12:34;8.10;;;4.50;;
77164;SDS011;66140;50.280;18.660;2023-02-25T20:15:04;12.40;;;5.93;;
77164;SDS011;66140;50.280;18.660;2023-02-25T20:17:30;10.60;;;4.85;;
77164;SDS011;66140;50.280;18.660;2023-02-25T20:19:55;10.53;;;4.77;;
77164;SDS011;66140;50.280;18.660;2023-02-25T20:22:21;10.32;;;5.20;;
77164;SDS011;66140;50.280;18.660;2023-02-25T20:24:48;11.10;;;5.78;;
77164;SDS011;66140;50.280;18.660;2023-02-25T20:27:14;10.75;;;5.90;;
77164;SDS011;66140;50.280;18.660;2023-02-25T20:29:39;9.80;;;5.97;;
77164;SDS011;66140;50.280;18.660;2023-02-25T20:32:05;11.48;;;5.43;;
77164;SDS011;66140;50.280;18.660;2023-02-25T20:34:31;11.60;;;6.28;;
77164;SDS011;66140;50.280;18.660;2023-02-25T20:37:04;9.52;;;4.05;;
77164;SDS011;66140;50.280;18.660;2023-02-25T20:42:01;11.40;;;6.80;;
77164;SDS011;66140;50.280;18.660;2023-02-25T20:44:38;11.65;;;5.50;;
77164;SDS011;66140;50.280;18.660;2023-02-25T20:47:04;10.63;;;5.25;;
77164;SDS011;66140;50.280;18.660;2023-02-25T20:49:31;8.82;;;5.38;;
77164;SDS011;66140;50.280;18.660;2023-02-25T20:51:57;9.55;;;6.22;;
77164;SDS011;66140;50.280;18.660;2023-02-25T20:54:22;15.52;;;7.75;;
77164;SDS011;66140;50.280;18.660;2023-02-25T20:56:48;16.95;;;7.07;;
77164;SDS011;66140;50.280;18.660;2023-02-25T20:59:14;10.93;;;5.82;;
77164;SDS011;66140;50.280;18.660;2023-02-25T21:01:40;7.85;;;4.22;;
77164;SDS011;66140;50.280;18.660;2023-02-25T21:04:06;4.50;;;3.75;;
77164;SDS011;66140;50.280;18.660;2023-02-25T21:06:32;15.68;;;7.55;;
77164;SDS011;66140;50.280;18.660;2023-02-25T21:08:57;12.32;;;4.97;;
77164;SDS011;66140;50.280;18.660;2023-02-25T21:11:24;14.73;;;6.25;;
77164;SDS011;66140;50.280;18.660;2023-02-25T21:13:50;7.20;;;4.53;;
77164;SDS011;66140;50.280;18.660;2023-02-25T21:16:16;9.57;;;5.25;;
77164;SDS011;66140;50.280;18.660;2023-02-25T21:18:43;8.80;;;4.45;;
77164;SDS011;66140;50.280;18.660;2023-02-25T21:21:10;10.23;;;5.03;;
77164;SDS011;66140;50.280;18.660;2023-02-25T21:23:39;9.70;;;4.90;;
77164;SDS011;66140;50.280;18.660;2023-02-25T21:26:05;10.90;;;6.30;;
77164;SDS011;66140;50.280;18.660;2023-02-25T21:28:33;8.30;;;4.47;;
77164;SDS011;66140;50.280;18.660;2023-02-25T21:31:04;9.60;;;4.75;;
77164;SDS011;66140;50.280;18.660;2023-02-25T21:33:34;17.02;;;7.25;;
77164;SDS011;66140;50.280;18.660;2023-02-25T21:36:01;15.48;;;8.18;;
77164;SDS011;66140;50.280;18.660;2023-02-25T21:38:27;19.48;;;8.02;;
77164;SDS011;66140;50.280;18.660;2023-02-25T21:40:53;18.55;;;7.72;;
77164;SDS011;66140;50.280;18.660;2023-02-25T21:43:19;12.85;;;6.07;;
77164;SDS011;66140;50.280;18.660;2023-02-25T21:45:52;9.50;;;5.03;;
77164;SDS011;66140;50.280;18.660;2023-02-25T21:48:19;11.55;;;5.28;;
77164;SDS011;66140;50.280;18.660;2023-02-25T21:50:45;7.38;;;3.78;;
77164;SDS011;66140;50.280;18.660;2023-02-25T21:53:11;9.65;;;4.93;;
77164;SDS011;66140;50.280;18.660;2023-02-25T21:55:37;7.85;;;4.68;;
77164;SDS011;66140;50.280;18.660;2023-02-25T21:58:02;16.13;;;7.35;;
77164;SDS011;66140;50.280;18.660;2023-02-25T22:00:28;12.98;;;6.90;;
77164;SDS011;66140;50.280;18.660;2023-02-25T22:02:53;10.07;;;5.27;;
77164;SDS011;66140;50.280;18.660;2023-02-25T22:05:18;10.60;;;5.70;;
77164;SDS011;66140;50.280;18.660;2023-02-25T22:07:44;10.27;;;5.75;;
77164;SDS011;66140;50.280;18.660;2023-02-25T22:10:10;9.52;;;5.55;;
77164;SDS011;66140;50.280;18.660;2023-02-25T22:12:36;7.43;;;4.72;;
77164;SDS011;66140;50.280;18.660;2023-02-25T22:15:01;8.55;;;5.03;;
77164;SDS011;66140;50.280;18.660;2023-02-25T22:17:27;7.53;;;3.95;;
77164;SDS011;66140;50.280;18.660;2023-02-25T22:19:52;7.20;;;3.55;;
77164;SDS011;66140;50.280;18.660;2023-02-25T22:22:18;11.68;;;6.35;;
77164;SDS011;66140;50.280;18.660;2023-02-25T22:24:43;14.32;;;6.40;;
77164;SDS011;66140;50.280;18.660;2023-02-25T22:27:08;8.33;;;5.30;;
77164;SDS011;66140;50.280;18.660;2023-02-25T22:29:34;9.77;;;5.05;;
